»·PEaware :: N232Z KPSP-KSBA

N232Z :: KPSP-KSBA

FLIGHT INFORMATION

Flight Status: Arrived
Operator: Privately registered:
United States
More flights under this callsign
Pilot: Merv A. (1555)
Aircraft: Unknown
(LEG2)
More flights by this aircraft type
Origin: KPSP Palm Springs Intl
United States
Destination: KSBA Santa Barbara Mun
United States
More flights between these airports :: More routes between these airports
Route: +CATH1 PSP V388 PDZ V186 DEANO V27 KWANG
File this flight plan on PilotEdge
Remarks: TEC Route; PSPN16
Altitude:
(Current/Filed)
10,000ft
Speed:
(Current/Filed)
200kts
Departed: 24-Sep-17 02:03 PM
Arrived: 24-Sep-17 03:04 PM
Distance/Time
Traveled:
169nm/1:01
Distance/Time
To Go:
Arrived

Flight Plot

Page will automatically refresh every two minutes.

Flight plan parsing failed; only flown route is shown


Map Options




Map Legend


Flown Route
Filed Route
Departure Airport
Arrival Airport
Navaid (VOR, NDB)
Fix

Horizontal Profiles

Position Reports

Time Latitude Longitude Heading Altitude Ground
Speed
24-Sep-17 13:36 33.823003 -116.497247 54 480ft 0kts
24-Sep-17 13:37 33.823003 -116.497247 54 480ft 0kts
24-Sep-17 13:38 33.823003 -116.497247 54 480ft 0kts
24-Sep-17 13:39 33.823003 -116.497247 54 480ft 0kts
24-Sep-17 13:40 33.823003 -116.497247 54 480ft 0kts
24-Sep-17 13:41 33.823003 -116.497247 54 480ft 0kts
24-Sep-17 13:42 33.823003 -116.497247 54 480ft 0kts
24-Sep-17 13:43 33.823003 -116.497247 54 480ft 0kts
24-Sep-17 13:44 33.823003 -116.497247 54 480ft 0kts
24-Sep-17 13:45 33.823003 -116.497247 54 480ft 0kts
24-Sep-17 13:46 33.823003 -116.497247 54 480ft 0kts
24-Sep-17 13:47 33.823003 -116.497247 54 480ft 0kts
24-Sep-17 13:48 33.823003 -116.497247 54 480ft 0kts
24-Sep-17 13:49 33.823003 -116.497247 54 480ft 0kts
24-Sep-17 13:50 33.823003 -116.497247 54 480ft 0kts
24-Sep-17 13:51 33.823003 -116.497247 54 480ft 0kts
24-Sep-17 13:52 33.823003 -116.497247 54 480ft 0kts
24-Sep-17 13:53 33.823003 -116.497247 54 480ft 0kts
24-Sep-17 13:54 33.823003 -116.497247 54 480ft 0kts
24-Sep-17 13:55 33.823004 -116.497246 54 480ft 0kts
24-Sep-17 13:56 33.823006 -116.497243 54 480ft 0kts
24-Sep-17 13:57 33.823008 -116.497239 54 480ft 0kts
24-Sep-17 13:58 33.823008 -116.497239 54 480ft 0kts
24-Sep-17 13:59 33.823008 -116.497239 54 480ft 0kts
24-Sep-17 14:00 33.823008 -116.497239 54 480ft 0kts
24-Sep-17 14:01 33.823008 -116.497239 54 480ft 0kts
24-Sep-17 14:02 33.823150 -116.497170 349 480ft 7kts
24-Sep-17 14:03 33.824798 -116.499195 255 480ft 6kts
24-Sep-17 14:04 33.824588 -116.499643 235 480ft 0kts
24-Sep-17 14:05 33.824423 -116.500128 322 480ft 4kts
24-Sep-17 14:06 33.824513 -116.500209 323 480ft 6kts
24-Sep-17 14:07 33.846103 -116.519063 322 1278ft 140kts
24-Sep-17 14:08 33.879016 -116.548653 322 2908ft 150kts
24-Sep-17 14:09 33.910498 -116.551130 84 4488ft 156kts
24-Sep-17 14:10 33.893980 -116.501481 110 6126ft 163kts
24-Sep-17 14:11 33.898684 -116.454832 7 7008ft 184kts
24-Sep-17 14:12 33.917551 -116.505835 263 7013ft 202kts
24-Sep-17 14:13 33.910406 -116.571628 278 7017ft 195kts
24-Sep-17 14:14 33.921049 -116.630668 290 8346ft 170kts
24-Sep-17 14:15 33.933994 -116.682267 289 9887ft 152kts
24-Sep-17 14:16 33.948148 -116.737743 288 10068ft 189kts
24-Sep-17 14:17 33.946851 -116.804216 270 10010ft 209kts
24-Sep-17 14:18 33.946700 -116.875489 270 9993ft 215kts
24-Sep-17 14:19 33.942916 -116.944853 267 9977ft 197kts
24-Sep-17 14:20 33.941020 -117.009234 269 9971ft 192kts
24-Sep-17 14:21 33.938449 -117.073473 268 9994ft 190kts
24-Sep-17 14:22 33.935675 -117.137373 268 9989ft 193kts
24-Sep-17 14:23 33.932896 -117.203723 268 9476ft 203kts
24-Sep-17 14:24 33.929930 -117.272321 267 8479ft 205kts
24-Sep-17 14:25 33.926821 -117.341417 267 7478ft 206kts
24-Sep-17 14:26 33.923873 -117.408689 267 6474ft 195kts
24-Sep-17 14:27 33.921020 -117.473739 267 6054ft 201kts
24-Sep-17 14:28 33.921377 -117.540096 288 5935ft 194kts
24-Sep-17 14:29 33.942812 -117.598875 291 5933ft 190kts
24-Sep-17 14:30 33.963451 -117.657192 293 6003ft 190kts
24-Sep-17 14:31 33.984028 -117.715627 292 6002ft 195kts
24-Sep-17 14:32 34.005465 -117.776449 292 6010ft 197kts
24-Sep-17 14:33 34.026918 -117.837832 290 6011ft 198kts
24-Sep-17 14:34 34.043646 -117.901103 287 6002ft 199kts
24-Sep-17 14:35 34.063631 -117.963524 291 5992ft 199kts
24-Sep-17 14:36 34.082923 -118.025777 289 5989ft 199kts
24-Sep-17 14:37 34.101803 -118.088603 289 5991ft 198kts
24-Sep-17 14:38 34.120698 -118.151166 289 5992ft 198kts
24-Sep-17 14:39 34.139327 -118.212844 289 5993ft 198kts
24-Sep-17 14:40 34.158295 -118.275657 289 5992ft 198kts
24-Sep-17 14:41 34.173150 -118.339983 282 5991ft 198kts
24-Sep-17 14:42 34.184969 -118.404852 282 5997ft 198kts
24-Sep-17 14:43 34.196853 -118.470094 281 6001ft 198kts
24-Sep-17 14:44 34.208685 -118.535480 282 5990ft 199kts
24-Sep-17 14:45 34.220362 -118.601151 280 6003ft 198kts
24-Sep-17 14:46 34.212239 -118.665780 252 6000ft 196kts
24-Sep-17 14:47 34.195737 -118.729051 256 5998ft 198kts
24-Sep-17 14:48 34.195587 -118.795662 272 6004ft 198kts
24-Sep-17 14:49 34.197667 -118.862086 272 6006ft 198kts
24-Sep-17 14:50 34.199760 -118.928932 272 6009ft 198kts
24-Sep-17 14:51 34.201727 -118.995562 272 6011ft 199kts
24-Sep-17 14:52 34.203578 -119.062339 272 6009ft 199kts
24-Sep-17 14:53 34.205419 -119.129192 272 6002ft 199kts
24-Sep-17 14:54 34.207254 -119.196223 272 6001ft 199kts
24-Sep-17 14:55 34.209098 -119.262309 273 6000ft 195kts
24-Sep-17 14:56 34.230271 -119.321751 297 6003ft 193kts
24-Sep-17 14:57 34.255270 -119.381820 297 5327ft 203kts
24-Sep-17 14:58 34.280687 -119.442672 297 4621ft 193kts
24-Sep-17 14:59 34.303583 -119.497855 297 3941ft 178kts
24-Sep-17 15:00 34.325080 -119.550114 297 3240ft 170kts
24-Sep-17 15:01 34.345519 -119.599790 297 2756ft 161kts
24-Sep-17 15:02 34.366287 -119.646541 298 2338ft 154kts
24-Sep-17 15:03 34.388596 -119.692898 298 2050ft 165kts
24-Sep-17 15:04 34.410500 -119.736361 300 1671ft 120kts
24-Sep-17 15:05 34.424367 -119.768010 281 1130ft 99kts
24-Sep-17 15:06 34.428409 -119.799039 271 675ft 94kts
24-Sep-17 15:07 34.427995 -119.830304 267 115ft 88kts
24-Sep-17 15:08 34.428552 -119.841963 345 13ft 0kts
24-Sep-17 15:09 34.428553 -119.841963 345 13ft 0kts
24-Sep-17 15:10 34.429497 -119.842249 345 13ft 6kts
24-Sep-17 15:11 34.430537 -119.840259 65 13ft 11kts
24-Sep-17 15:12 34.431595 -119.836798 71 13ft 11kts
24-Sep-17 15:13 34.432858 -119.835777 283 13ft 6kts
24-Sep-17 15:14 34.432861 -119.836061 245 13ft 0kts
24-Sep-17 15:15 34.432861 -119.836061 245 13ft 0kts

Navigation Log

Ident Type
Flight plan parsing failed, navigation log unavailable